createdAt,value
2018-04-27T00:00:03.755Z,59.90
2018-04-27T00:02:32.025Z,59.90
2018-04-27T00:05:00.366Z,59.80
2018-04-27T00:07:28.590Z,59.80
2018-04-27T00:09:57.609Z,59.90
2018-04-27T00:12:29.167Z,59.90
2018-04-27T00:14:57.446Z,60.10
2018-04-27T00:17:25.779Z,60.00
2018-04-27T00:19:54.053Z,60.10
2018-04-27T00:22:22.335Z,60.10
2018-04-27T00:24:50.639Z,60.20
2018-04-27T00:27:19.691Z,60.60
2018-04-27T00:29:47.980Z,60.30
2018-04-27T00:32:16.271Z,60.30
2018-04-27T00:34:44.578Z,60.30
2018-04-27T00:37:12.848Z,60.20
2018-04-27T00:39:41.878Z,60.20
2018-04-27T00:42:10.203Z,60.30
2018-04-27T00:44:38.461Z,60.30
2018-04-27T00:47:06.772Z,60.40
2018-04-27T00:49:35.832Z,60.50
2018-04-27T00:52:04.146Z,60.30
2018-04-27T00:54:32.422Z,60.40
2018-04-27T00:57:01.481Z,60.50
2018-04-27T00:59:29.781Z,60.50
2018-04-27T01:01:58.020Z,60.70
2018-04-27T01:04:26.311Z,60.80
2018-04-27T01:06:54.588Z,60.80
2018-04-27T01:09:22.887Z,60.70
2018-04-27T01:11:51.178Z,60.70
2018-04-27T01:14:20.210Z,60.50
2018-04-27T01:16:48.504Z,60.60
2018-04-27T01:19:16.791Z,60.60
2018-04-27T01:21:45.074Z,60.60
2018-04-27T01:24:13.345Z,60.50
2018-04-27T01:26:41.664Z,60.50
2018-04-27T01:29:09.937Z,60.50
2018-04-27T01:31:38.209Z,60.50
2018-04-27T01:34:06.488Z,60.20
2018-04-27T01:36:34.767Z,60.30
2018-04-27T01:39:03.102Z,60.10
2018-04-27T01:41:31.379Z,60.50
2018-04-27T01:43:59.823Z,60.90
2018-04-27T01:46:28.106Z,60.20
2018-04-27T01:48:56.387Z,60.20
2018-04-27T01:51:24.704Z,60.20
2018-04-27T01:53:52.958Z,60.00
2018-04-27T01:56:21.229Z,60.10
2018-04-27T01:58:49.580Z,60.10
2018-04-27T02:01:17.788Z,60.00
2018-04-27T02:03:46.076Z,60.10
2018-04-27T02:06:14.325Z,60.20
2018-04-27T02:08:43.415Z,60.10
2018-04-27T02:11:12.455Z,60.10
2018-04-27T02:13:40.719Z,60.10
2018-04-27T02:16:09.020Z,60.00
2018-04-27T02:18:37.305Z,60.00
2018-04-27T02:21:05.587Z,60.00
2018-04-27T02:23:33.865Z,61.10
2018-04-27T02:26:02.135Z,61.10
2018-04-27T02:28:30.449Z,61.30
2018-04-27T02:30:58.717Z,61.30
2018-04-27T02:33:27.020Z,61.50
2018-04-27T02:35:56.041Z,61.60
2018-04-27T02:38:24.287Z,61.60
2018-04-27T02:40:53.322Z,61.70
2018-04-27T02:43:21.594Z,61.70
2018-04-27T02:45:49.906Z,61.80
2018-04-27T02:48:18.169Z,61.90
2018-04-27T02:50:46.462Z,62.10
2018-04-27T02:53:14.746Z,62.10
2018-04-27T02:55:43.043Z,62.00
2018-04-27T02:58:11.341Z,62.00
2018-04-27T03:00:39.596Z,62.00
2018-04-27T03:03:08.653Z,61.90
2018-04-27T03:05:36.927Z,62.00
2018-04-27T03:08:05.202Z,62.00
2018-04-27T03:10:33.483Z,62.00
2018-04-27T03:13:01.761Z,62.00
2018-04-27T03:15:30.031Z,61.90
2018-04-27T03:17:58.332Z,61.90
2018-04-27T03:20:26.591Z,61.80
2018-04-27T03:22:54.829Z,61.80
2018-04-27T03:25:24.023Z,61.80
2018-04-27T03:27:52.299Z,61.80
2018-04-27T03:30:21.358Z,61.70
2018-04-27T03:32:49.616Z,61.70
2018-04-27T03:35:17.903Z,61.80
2018-04-27T03:37:46.164Z,61.90
2018-04-27T03:40:14.432Z,61.90
2018-04-27T03:42:42.716Z,61.90
2018-04-27T03:45:10.988Z,61.90
2018-04-27T03:47:39.288Z,61.90
2018-04-27T03:50:07.554Z,61.90
2018-04-27T03:52:35.835Z,62.00
2018-04-27T03:55:04.120Z,62.10
2018-04-27T03:57:32.407Z,62.10
2018-04-27T04:00:12.421Z,62.10
2018-04-27T04:02:52.442Z,62.10
2018-04-27T04:05:34.397Z,62.20
2018-04-27T04:08:02.663Z,62.20
2018-04-27T04:10:30.961Z,62.30
2018-04-27T04:12:59.365Z,62.30
2018-04-27T04:15:27.629Z,62.50
2018-04-27T04:17:56.045Z,62.60
2018-04-27T04:20:24.313Z,62.60
2018-04-27T04:22:52.858Z,62.80
2018-04-27T04:25:21.134Z,62.90
2018-04-27T04:27:49.434Z,63.00
2018-04-27T04:30:17.886Z,63.00
2018-04-27T04:32:46.154Z,62.90
2018-04-27T04:35:14.426Z,63.00
2018-04-27T04:37:42.734Z,63.00
2018-04-27T04:40:11.011Z,63.00
2018-04-27T04:42:39.308Z,63.00
2018-04-27T04:45:07.587Z,63.10
2018-04-27T04:47:36.626Z,62.50
2018-04-27T04:50:04.933Z,63.20
2018-04-27T04:52:33.211Z,63.10
2018-04-27T04:55:01.457Z,63.10
2018-04-27T04:57:29.773Z,63.10
2018-04-27T04:59:58.029Z,63.10
2018-04-27T05:02:26.302Z,63.00
2018-04-27T05:04:54.595Z,62.80
2018-04-27T05:07:23.470Z,62.90
2018-04-27T05:09:51.785Z,62.70
2018-04-27T05:12:20.021Z,62.60
2018-04-27T05:14:48.315Z,62.40
2018-04-27T05:17:16.586Z,62.30
2018-04-27T05:19:44.877Z,62.20
2018-04-27T05:22:13.134Z,62.10
2018-04-27T05:24:41.467Z,61.90
2018-04-27T05:27:09.717Z,61.80
2018-04-27T05:29:38.074Z,61.60
2018-04-27T05:32:07.101Z,61.40
2018-04-27T05:34:35.372Z,61.50
2018-04-27T05:37:04.475Z,60.20
2018-04-27T05:39:44.540Z,60.20
2018-04-27T05:42:18.881Z,60.30
2018-04-27T05:44:47.267Z,60.30
2018-04-27T05:47:15.566Z,60.10
2018-04-27T05:49:43.845Z,59.90
2018-04-27T05:52:12.148Z,59.90
2018-04-27T05:54:40.408Z,59.90
2018-04-27T05:57:08.713Z,59.70
2018-04-27T05:59:36.954Z,59.70
2018-04-27T06:02:05.302Z,59.60
2018-04-27T06:04:34.536Z,59.50
2018-04-27T06:07:02.814Z,59.40
2018-04-27T06:09:31.109Z,60.00
2018-04-27T06:11:59.439Z,59.30
2018-04-27T06:14:27.707Z,59.30
2018-04-27T06:16:55.989Z,59.30
2018-04-27T06:19:24.306Z,59.10
2018-04-27T06:21:52.566Z,58.90
2018-04-27T06:24:20.867Z,58.70
2018-04-27T06:26:49.121Z,58.80
2018-04-27T06:29:17.437Z,58.60
2018-04-27T06:31:45.805Z,58.50
2018-04-27T06:34:13.992Z,58.30
2018-04-27T06:36:42.287Z,58.30
2018-04-27T06:39:10.569Z,58.20
2018-04-27T06:41:38.866Z,58.00
2018-04-27T06:44:07.163Z,57.80
2018-04-27T06:46:35.475Z,57.50
2018-04-27T06:49:03.859Z,57.30
2018-04-27T06:51:32.364Z,57.00
2018-04-27T06:54:00.553Z,56.70
2018-04-27T06:56:28.898Z,56.60
2018-04-27T06:58:58.258Z,56.80
2018-04-27T07:01:27.100Z,56.50
2018-04-27T07:04:01.079Z,56.30
2018-04-27T07:06:29.361Z,56.00
2018-04-27T07:08:57.647Z,56.00
2018-04-27T07:11:25.966Z,55.90
2018-04-27T07:13:55.031Z,55.70
2018-04-27T07:16:23.344Z,55.70
2018-04-27T07:18:51.611Z,55.70
2018-04-27T07:21:19.875Z,55.50
2018-04-27T07:23:48.172Z,55.40
2018-04-27T07:26:16.452Z,55.30
2018-04-27T07:28:45.554Z,55.00
2018-04-27T07:31:13.815Z,55.00
2018-04-27T07:33:42.114Z,54.50
2018-04-27T07:36:10.378Z,54.30
2018-04-27T07:38:38.676Z,54.20
2018-04-27T07:41:07.742Z,54.10
2018-04-27T07:43:36.058Z,53.80
2018-04-27T07:46:04.372Z,53.60
2018-04-27T07:48:32.671Z,53.10
2018-04-27T07:51:01.061Z,52.60
2018-04-27T07:53:29.337Z,52.20
2018-04-27T07:55:57.649Z,52.20
2018-04-27T07:58:25.982Z,52.20
2018-04-27T08:00:55.095Z,51.80
2018-04-27T08:03:23.438Z,51.70
2018-04-27T08:05:51.704Z,51.50
2018-04-27T08:08:20.094Z,51.10
2018-04-27T08:10:48.373Z,50.70
2018-04-27T08:13:16.644Z,50.60
2018-04-27T08:15:45.042Z,50.60
2018-04-27T08:18:13.310Z,50.10
2018-04-27T08:20:41.622Z,49.90
2018-04-27T08:23:09.910Z,49.70
2018-04-27T08:25:38.229Z,49.20
2018-04-27T08:28:06.514Z,49.30
2018-04-27T08:30:34.838Z,49.40
2018-04-27T08:33:03.135Z,48.90
2018-04-27T08:35:31.416Z,48.00
2018-04-27T08:37:59.719Z,47.30
2018-04-27T08:40:27.996Z,47.20
2018-04-27T08:42:56.302Z,47.00
2018-04-27T08:45:24.605Z,46.80
2018-04-27T08:47:52.921Z,45.80
2018-04-27T08:50:22.053Z,45.20
2018-04-27T08:52:50.262Z,45.00
2018-04-27T08:55:18.782Z,44.70
2018-04-27T08:57:47.190Z,44.60
2018-04-27T09:00:15.581Z,43.90
2018-04-27T09:02:43.847Z,43.80
2018-04-27T09:05:12.063Z,43.30
2018-04-27T09:07:40.486Z,43.60
2018-04-27T09:10:08.750Z,43.80
2018-04-27T09:12:38.547Z,44.10
2018-04-27T09:15:06.846Z,44.10
2018-04-27T09:17:35.173Z,44.80
2018-04-27T09:20:03.529Z,43.60
2018-04-27T09:22:31.844Z,43.40
2018-04-27T09:25:00.119Z,43.40
2018-04-27T09:27:28.423Z,43.00
2018-04-27T09:29:56.732Z,42.60
2018-04-27T09:32:24.993Z,42.70
2018-04-27T09:34:54.115Z,42.10
2018-04-27T09:37:22.685Z,42.10
2018-04-27T09:39:51.178Z,42.80
2018-04-27T09:42:19.482Z,42.00
2018-04-27T09:44:47.773Z,41.70
2018-04-27T09:47:16.204Z,41.40
2018-04-27T09:49:44.493Z,41.00
2018-04-27T09:52:12.892Z,41.00
2018-04-27T09:54:41.172Z,41.00
2018-04-27T09:57:09.452Z,40.80
2018-04-27T09:59:37.720Z,40.70
2018-04-27T10:02:06.040Z,40.60
2018-04-27T10:04:34.303Z,40.60
2018-04-27T10:07:02.597Z,40.60
2018-04-27T10:09:30.907Z,40.40
2018-04-27T10:11:59.254Z,40.00
2018-04-27T10:14:27.553Z,39.80
2018-04-27T10:16:57.764Z,39.70
2018-04-27T10:19:26.897Z,39.80
2018-04-27T10:21:55.196Z,39.80
2018-04-27T10:24:23.586Z,39.80
2018-04-27T10:26:51.850Z,39.20
2018-04-27T10:29:20.125Z,39.30
2018-04-27T10:31:48.428Z,39.20
2018-04-27T10:34:16.679Z,38.40
2018-04-27T10:36:44.969Z,37.40
2018-04-27T10:39:13.260Z,37.40
2018-04-27T10:41:41.587Z,37.80
2018-04-27T10:44:10.621Z,36.90
2018-04-27T10:46:38.897Z,36.80
2018-04-27T10:49:07.200Z,36.50
2018-04-27T10:51:35.529Z,36.50
2018-04-27T10:54:03.875Z,36.30
2018-04-27T10:56:32.941Z,35.60
2018-04-27T10:59:01.197Z,35.60
2018-04-27T11:01:29.498Z,35.60
2018-04-27T11:03:57.793Z,35.50
2018-04-27T11:06:26.132Z,35.40
2018-04-27T11:08:54.497Z,35.40
2018-04-27T11:11:22.836Z,35.50
2018-04-27T11:13:51.186Z,34.80
2018-04-27T11:16:19.465Z,34.90
2018-04-27T11:18:47.756Z,34.60
2018-04-27T11:21:16.033Z,34.00
2018-04-27T11:23:44.407Z,33.70
2018-04-27T11:26:12.706Z,33.80
2018-04-27T11:28:41.020Z,33.20
2018-04-27T11:31:09.241Z,33.30
2018-04-27T11:33:37.649Z,33.40
2018-04-27T11:36:05.925Z,33.10
2018-04-27T11:38:34.210Z,32.20
2018-04-27T11:41:02.515Z,31.50
2018-04-27T11:43:30.818Z,30.70
2018-04-27T11:46:00.486Z,30.40
2018-04-27T11:48:34.310Z,30.00
2018-04-27T11:51:02.759Z,29.90
2018-04-27T11:53:32.077Z,29.50
2018-04-27T11:56:02.237Z,29.50
2018-04-27T11:58:31.498Z,28.50
2018-04-27T12:01:00.542Z,27.90
2018-04-27T12:03:29.376Z,27.80
2018-04-27T12:05:58.422Z,27.70
2018-04-27T12:08:27.418Z,27.70
2018-04-27T12:10:56.502Z,27.40
2018-04-27T12:13:26.716Z,27.40
2018-04-27T12:15:58.159Z,27.30
2018-04-27T12:18:26.483Z,27.10
2018-04-27T12:20:54.781Z,27.00
2018-04-27T12:23:23.711Z,26.10
2018-04-27T12:25:52.110Z,25.60
2018-04-27T12:28:20.362Z,25.30
2018-04-27T12:30:48.933Z,25.30
2018-04-27T12:33:18.160Z,24.20
2018-04-27T12:35:49.057Z,24.70
2018-04-27T12:38:17.720Z,24.50
2018-04-27T12:40:46.927Z,25.00
2018-04-27T12:43:16.078Z,24.90
2018-04-27T12:45:44.348Z,25.20
2018-04-27T12:48:12.645Z,24.90
2018-04-27T12:50:40.908Z,24.80
2018-04-27T12:53:09.294Z,24.60
2018-04-27T12:55:37.584Z,24.50
2018-04-27T12:58:05.858Z,24.40
2018-04-27T13:00:34.272Z,24.50
2018-04-27T13:03:02.548Z,24.60
2018-04-27T13:05:30.858Z,24.10
2018-04-27T13:08:05.974Z,23.10
2018-04-27T13:10:34.281Z,23.10
2018-04-27T13:13:03.336Z,22.80
2018-04-27T13:15:31.636Z,22.80
2018-04-27T13:18:00.459Z,22.50
2018-04-27T13:20:28.777Z,22.50
2018-04-27T13:22:57.112Z,22.50
2018-04-27T13:25:25.375Z,22.60
2018-04-27T13:27:53.689Z,22.80
2018-04-27T13:30:21.947Z,22.70
2018-04-27T13:32:51.031Z,22.60
2018-04-27T13:35:20.086Z,22.50
2018-04-27T13:37:48.354Z,22.40
2018-04-27T13:40:16.639Z,22.30
2018-04-27T13:42:44.930Z,22.40
2018-04-27T13:45:13.217Z,22.30
2018-04-27T13:47:41.487Z,22.30
2018-04-27T13:50:09.801Z,22.40
2018-04-27T13:52:39.069Z,22.30
2018-04-27T13:57:47.764Z,21.80
2018-04-27T14:00:16.282Z,21.80
2018-04-27T14:02:48.980Z,22.10
2018-04-27T14:05:17.402Z,21.80
2018-04-27T14:07:46.677Z,22.00
2018-04-27T14:10:18.806Z,22.00
2018-04-27T14:12:47.473Z,21.80
2018-04-27T14:15:16.323Z,21.40
2018-04-27T14:17:45.001Z,21.20
2018-04-27T14:20:13.495Z,21.40
2018-04-27T14:22:41.787Z,21.40
2018-04-27T14:25:11.053Z,21.90
2018-04-27T14:27:39.438Z,21.90
2018-04-27T14:30:07.991Z,21.60
2018-04-27T14:32:37.168Z,21.60
2018-04-27T14:35:08.451Z,21.60
2018-04-27T14:37:38.251Z,21.30
2018-04-27T14:40:06.744Z,21.30
2018-04-27T14:42:36.221Z,21.80
2018-04-27T14:45:06.204Z,22.00
2018-04-27T14:47:34.668Z,21.80
2018-04-27T14:50:03.505Z,21.60
2018-04-27T14:52:33.760Z,21.70
2018-04-27T14:55:03.106Z,22.00
2018-04-27T14:57:31.536Z,21.90
2018-04-27T14:59:59.899Z,22.00
2018-04-27T15:02:28.659Z,22.00
2018-04-27T15:04:57.150Z,22.00
2018-04-27T15:07:26.357Z,22.10
2018-04-27T15:09:55.756Z,22.00
2018-04-27T15:12:24.232Z,22.00
2018-04-27T15:14:52.772Z,22.10
2018-04-27T15:17:21.345Z,22.20
2018-04-27T15:19:49.800Z,21.90
2018-04-27T15:22:18.203Z,22.10
2018-04-27T15:24:47.158Z,22.20
2018-04-27T15:27:15.726Z,22.40
2018-04-27T15:29:44.160Z,22.90
2018-04-27T15:32:12.732Z,22.50
2018-04-27T15:34:41.110Z,22.50
2018-04-27T15:37:10.743Z,22.50
2018-04-27T15:39:39.188Z,22.90
2018-04-27T15:42:07.679Z,22.80
2018-04-27T15:44:36.803Z,22.40
2018-04-27T15:47:05.892Z,22.30
2018-04-27T15:49:34.258Z,22.70
2018-04-27T15:52:02.753Z,22.90
2018-04-27T15:54:31.004Z,22.70
2018-04-27T15:56:59.458Z,22.60
2018-04-27T15:59:28.135Z,22.80
2018-04-27T16:01:56.521Z,23.10
2018-04-27T16:04:24.860Z,23.30
2018-04-27T16:06:53.167Z,23.40
2018-04-27T16:09:21.465Z,23.70
2018-04-27T16:11:49.854Z,23.90
2018-04-27T16:14:18.896Z,24.50
2018-04-27T16:16:47.275Z,24.50
2018-04-27T16:19:19.671Z,24.90
2018-04-27T16:21:50.127Z,25.20
2018-04-27T16:26:52.999Z,25.60
2018-04-27T16:29:21.508Z,25.70
2018-04-27T16:31:54.925Z,25.30
2018-04-27T16:34:23.330Z,25.30
2018-04-27T16:36:51.729Z,25.40
2018-04-27T16:39:20.006Z,25.30
2018-04-27T16:41:48.429Z,25.50
2018-04-27T16:44:16.763Z,25.80
2018-04-27T16:46:45.053Z,26.00
2018-04-27T16:49:13.317Z,26.10
2018-04-27T16:51:41.605Z,26.30
2018-04-27T16:54:09.897Z,26.60
2018-04-27T16:56:38.166Z,26.80
2018-04-27T16:59:06.747Z,27.00
2018-04-27T17:01:35.091Z,27.00
2018-04-27T17:04:03.502Z,27.30
2018-04-27T17:06:31.920Z,27.60
2018-04-27T17:09:00.390Z,27.90
2018-04-27T17:11:28.747Z,28.00
2018-04-27T17:13:57.316Z,28.00
2018-04-27T17:16:26.157Z,27.90
2018-04-27T17:18:55.367Z,28.00
2018-04-27T17:21:26.350Z,28.00
2018-04-27T17:23:57.877Z,28.00
2018-04-27T17:26:26.221Z,28.00
2018-04-27T17:28:54.514Z,28.30
2018-04-27T17:31:23.733Z,28.70
2018-04-27T17:33:52.653Z,28.70
2018-04-27T17:36:21.214Z,28.80
2018-04-27T17:38:49.555Z,28.80
2018-04-27T17:41:18.057Z,28.90
2018-04-27T17:43:47.273Z,28.80
2018-04-27T17:46:16.687Z,29.10
2018-04-27T17:48:46.061Z,29.10
2018-04-27T17:51:14.316Z,29.20
2018-04-27T17:53:43.307Z,29.30
2018-04-27T17:56:12.327Z,29.60
2018-04-27T17:58:40.637Z,29.80
2018-04-27T18:01:08.972Z,30.00
2018-04-27T18:03:37.338Z,30.10
2018-04-27T18:06:06.068Z,30.40
2018-04-27T18:08:41.184Z,30.70
2018-04-27T18:11:24.842Z,31.30
2018-04-27T18:13:54.278Z,31.10
2018-04-27T18:16:22.641Z,31.40
2018-04-27T18:18:51.122Z,31.80
2018-04-27T18:21:20.364Z,32.10
2018-04-27T18:23:48.902Z,32.30
2018-04-27T18:26:17.172Z,32.60
2018-04-27T18:28:45.481Z,32.80
2018-04-27T18:31:14.028Z,33.00
2018-04-27T18:33:52.955Z,33.50
2018-04-27T18:36:21.414Z,34.10
2018-04-27T18:38:49.831Z,33.90
2018-04-27T18:41:18.149Z,34.10
2018-04-27T18:43:47.300Z,34.40
2018-04-27T18:46:16.377Z,34.60
2018-04-27T18:48:44.858Z,34.70
2018-04-27T18:51:14.018Z,34.90
2018-04-27T18:53:42.333Z,35.00
2018-04-27T18:56:12.168Z,35.50
2018-04-27T18:58:40.700Z,35.40
2018-04-27T19:01:09.012Z,35.80
2018-04-27T19:03:38.089Z,36.60
2018-04-27T19:06:06.425Z,35.90
2018-04-27T19:08:34.788Z,36.20
2018-04-27T19:11:04.091Z,36.30
2018-04-27T19:13:33.334Z,36.50
2018-04-27T19:16:01.772Z,36.50
2018-04-27T19:18:30.225Z,36.50
2018-04-27T19:20:58.702Z,36.60
2018-04-27T19:23:28.285Z,36.70
2018-04-27T19:25:58.269Z,36.90
2018-04-27T19:28:31.551Z,37.20
2018-04-27T19:31:02.603Z,37.30
2018-04-27T19:33:31.313Z,37.40
2018-04-27T19:36:00.373Z,37.50
2018-04-27T19:38:29.697Z,37.80
2018-04-27T19:40:58.896Z,38.10
2018-04-27T19:43:28.585Z,38.10
2018-04-27T19:45:57.409Z,38.50
2018-04-27T19:48:25.760Z,38.60
2018-04-27T19:50:54.121Z,38.90
2018-04-27T19:53:22.571Z,39.00
2018-04-27T19:55:50.849Z,39.00
2018-04-27T19:58:19.485Z,39.20
2018-04-27T20:00:48.835Z,39.30
2018-04-27T20:03:17.268Z,39.40
2018-04-27T20:05:46.382Z,39.50
2018-04-27T20:08:15.424Z,39.80
2018-04-27T20:10:44.861Z,39.80
2018-04-27T20:13:14.601Z,40.10
2018-04-27T20:15:43.000Z,40.20
2018-04-27T20:18:12.202Z,40.40
2018-04-27T20:20:41.537Z,40.40
2018-04-27T20:23:10.969Z,40.50
2018-04-27T20:25:39.715Z,40.50
2018-04-27T20:28:09.557Z,40.80
2018-04-27T20:30:41.291Z,40.80
2018-04-27T20:33:09.701Z,40.90
2018-04-27T20:35:38.363Z,41.00
2018-04-27T20:38:09.610Z,41.90
2018-04-27T20:40:38.426Z,41.40
2018-04-27T20:43:11.389Z,41.90
2018-04-27T20:45:40.366Z,41.80
2018-04-27T20:48:14.533Z,41.90
2018-04-27T20:51:01.338Z,42.00
2018-04-27T20:56:49.488Z,42.10
2018-04-27T20:59:17.794Z,42.00
2018-04-27T21:01:46.099Z,42.20
2018-04-27T21:04:14.421Z,42.40
2018-04-27T21:06:42.818Z,42.60
2018-04-27T21:09:12.020Z,42.70
2018-04-27T21:11:42.878Z,43.60
2018-04-27T21:14:11.382Z,43.00
2018-04-27T21:16:40.636Z,43.10
2018-04-27T21:19:09.735Z,43.40
2018-04-27T21:21:39.020Z,43.40
2018-04-27T21:24:07.450Z,43.50
2018-04-27T21:26:47.346Z,43.60
2018-04-27T21:29:17.520Z,43.80
2018-04-27T21:31:45.914Z,43.80
2018-04-27T21:34:14.234Z,44.00
2018-04-27T21:36:42.575Z,44.20
2018-04-27T21:39:20.651Z,44.30
2018-04-27T21:42:01.791Z,44.40
2018-04-27T21:44:34.574Z,44.40
2018-04-27T21:47:36.222Z,44.50
2018-04-27T21:50:07.364Z,44.70
2018-04-27T21:52:39.525Z,44.80
2018-04-27T21:55:07.813Z,45.10
2018-04-27T22:00:28.612Z,45.80
2018-04-27T22:03:08.483Z,45.70
2018-04-27T22:08:34.153Z,46.30
2018-04-27T22:11:08.187Z,46.20
2018-04-27T22:13:36.501Z,46.40
2018-04-27T22:16:04.926Z,46.50
2018-04-27T22:18:33.953Z,46.80
2018-04-27T22:21:02.261Z,46.90
2018-04-27T22:23:31.688Z,47.10
2018-04-27T22:26:01.405Z,47.30
2018-04-27T22:28:30.625Z,47.50
2018-04-27T22:30:59.736Z,47.90
2018-04-27T22:33:33.346Z,47.90
2018-04-27T22:36:08.646Z,47.90
2018-04-27T22:38:39.626Z,48.10
2018-04-27T22:41:08.720Z,48.20
2018-04-27T22:43:39.335Z,48.60
2018-04-27T22:46:21.113Z,48.70
2018-04-27T22:48:52.219Z,48.80
2018-04-27T22:51:29.512Z,48.80
2018-04-27T22:54:00.680Z,48.90
2018-04-27T22:56:31.875Z,49.10
2018-04-27T22:59:03.015Z,49.50
2018-04-27T23:01:31.345Z,49.60
2018-04-27T23:04:02.405Z,49.70
2018-04-27T23:06:30.696Z,49.80
2018-04-27T23:08:59.761Z,50.10
2018-04-27T23:11:28.078Z,50.10
2018-04-27T23:27:21.237Z,49.20
2018-04-27T23:29:49.582Z,49.30
2018-04-27T23:32:17.889Z,49.80
2018-04-27T23:34:46.219Z,50.20
2018-04-27T23:37:14.510Z,50.50
2018-04-27T23:39:42.806Z,50.80
2018-04-27T23:42:11.095Z,51.10
2018-04-27T23:44:39.394Z,51.30
2018-04-27T23:47:07.688Z,51.60
2018-04-27T23:49:40.294Z,51.80
2018-04-27T23:52:08.689Z,51.80
2018-04-27T23:54:37.050Z,51.90
2018-04-27T23:57:05.344Z,52.10
2018-04-27T23:59:34.486Z,52.30
